Oslo, Norway

2:59 AM CEST on April 25, 2017 (GMT +0200)
Gardermoen | | Change Station

Elev 669 ft 60.20 °N, 11.08 °E | Updated 9 minutes ago

Light Snow
Light Snow
32 °F
Feels Like 22 °F
N
15
Wind Variable Wind from North

Today
High -- | Low -- °F
--% Chance of Precip.
Yesterday
High -- | Low -- °F
Precip. -- in
Pressure 29.30 in
Visibility 6.2 miles
Clouds Few 1800 ft
Scattered Clouds 2600 ft
Overcast 4900 ft
Windchill 22 °F
Dew Point 28 °F
Humidity 87%
Rainfall 0.00 in
Snow Depth Not available.
5:29 AM 8:59 PM
Waning Crescent, 3% visible
METAR ENGM 250050Z 36013KT 9999 6000E -SN FEW018 SCT026 OVC049 M00/M02 Q0992
Pressure 29.30 in
Visibility 6.2 miles
Clouds Few 1800 ft
Scattered Clouds 2600 ft
Overcast 4900 ft
Windchill 22 °F
Dew Point 28 °F
Humidity 87%
Rainfall 0.00 in
Snow Depth Not available.
5:29 AM 8:59 PM
Waning Crescent, 3% visible
METAR ENGM 250050Z 36013KT 9999 6000E -SN FEW018 SCT026 OVC049 M00/M02 Q0992

Get Severe Weather Alerts

Thanks for signing up!

Be on the lookout for a verification email in your inbox.

You'll start receiving the daily forecast at 8 AM.

×

10-Day Weather Forecast

×

Almanac

Astronomy

Apr. 25, 2017 Rise Set
Actual Time
Civil Twilight
Nautical Twilight
Astronomical Twilight
Moon
Length of Visible Light
Length of Day
Tomorrow will be .
, % of the Moon is Illuminated

Today's Extremes

Country Highs Country Lows

Community

WunderPhotos

WunderBlog® & News

Nearby

Air Quality

  Air Quality AQ Index Pollutant
Not available.

Snow Depth

Station Depth Elevation

Earthquake Activity

City Distance Mag. Time & Date
Minimum magnitude displayed is 2.5.

Coastal Water Temperatures

Place Temperature

Stations

Nearby Weather Stations

Station Location Temp. Windchill Dew Point Humidity Wind Precip. Elev Updated Type